sensor_id;sensor_type;location;lat;lon;timestamp;pressure;altitude;pressure_sealevel;temperature;humidity
81897;BME280;71360;43.506;1.500;2023-08-07T00:02:23;99445.31;;;24.76;48.01
81897;BME280;71360;43.506;1.500;2023-08-07T00:04:49;99455.25;;;24.77;47.37
81897;BME280;71360;43.506;1.500;2023-08-07T00:07:14;99451.66;;;24.76;47.65
81897;BME280;71360;43.506;1.500;2023-08-07T00:09:40;99451.66;;;24.76;47.61
81897;BME280;71360;43.506;1.500;2023-08-07T00:12:05;99446.19;;;24.76;47.44
81897;BME280;71360;43.506;1.500;2023-08-07T00:14:31;99449.78;;;24.77;47.69
81897;BME280;71360;43.506;1.500;2023-08-07T00:16:56;99447.22;;;24.75;47.52
81897;BME280;71360;43.506;1.500;2023-08-07T00:19:22;99449.06;;;24.75;47.76
81897;BME280;71360;43.506;1.500;2023-08-07T00:21:47;99451.81;;;24.75;47.17
81897;BME280;71360;43.506;1.500;2023-08-07T00:24:13;99447.38;;;24.74;47.30
81897;BME280;71360;43.506;1.500;2023-08-07T00:26:38;99445.50;;;24.74;47.00
81897;BME280;71360;43.506;1.500;2023-08-07T00:29:03;99440.03;;;24.74;47.43
81897;BME280;71360;43.506;1.500;2023-08-07T00:31:29;99448.22;;;24.74;47.06
81897;BME280;71360;43.506;1.500;2023-08-07T00:33:59;99448.22;;;24.74;47.22
81897;BME280;71360;43.506;1.500;2023-08-07T00:36:25;99442.75;;;24.74;47.82
81897;BME280;71360;43.506;1.500;2023-08-07T00:38:53;99448.22;;;24.74;47.86
81897;BME280;71360;43.506;1.500;2023-08-07T00:41:19;99441.03;;;24.73;47.22
81897;BME280;71360;43.506;1.500;2023-08-07T00:43:45;99439.19;;;24.74;47.69
81897;BME280;71360;43.506;1.500;2023-08-07T00:46:10;99437.47;;;24.73;47.68
81897;BME280;71360;43.506;1.500;2023-08-07T00:48:36;99433.84;;;24.72;47.21
81897;BME280;71360;43.506;1.500;2023-08-07T00:51:02;99437.47;;;24.73;46.99
81897;BME280;71360;43.506;1.500;2023-08-07T00:53:30;99428.38;;;24.72;47.77
81897;BME280;71360;43.506;1.500;2023-08-07T00:55:56;99433.84;;;24.72;47.62
81897;BME280;71360;43.506;1.500;2023-08-07T00:58:23;99427.56;;;24.72;46.97
81897;BME280;71360;43.506;1.500;2023-08-07T01:00:48;99439.31;;;24.72;47.19
81897;BME280;71360;43.506;1.500;2023-08-07T01:03:14;99433.84;;;24.72;47.47
81897;BME280;71360;43.506;1.500;2023-08-07T01:05:39;99439.31;;;24.72;47.30
81897;BME280;71360;43.506;1.500;2023-08-07T01:08:05;99433.00;;;24.72;47.63
81897;BME280;71360;43.506;1.500;2023-08-07T01:11:14;99437.28;;;24.74;47.50
81897;BME280;71360;43.506;1.500;2023-08-07T01:14:01;99433.00;;;24.72;47.12
81897;BME280;71360;43.506;1.500;2023-08-07T01:16:40;99424.13;;;24.70;47.23
81897;BME280;71360;43.506;1.500;2023-08-07T01:19:17;99435.06;;;24.70;47.74
81897;BME280;71360;43.506;1.500;2023-08-07T01:21:47;99439.66;;;24.69;47.30
81897;BME280;71360;43.506;1.500;2023-08-07T01:24:13;99435.91;;;24.70;47.57
81897;BME280;71360;43.506;1.500;2023-08-07T01:26:39;99436.94;;;24.69;47.26
81897;BME280;71360;43.506;1.500;2023-08-07T01:29:15;99443.09;;;24.71;47.36
81897;BME280;71360;43.506;1.500;2023-08-07T01:31:44;99440.53;;;24.70;47.15
81897;BME280;71360;43.506;1.500;2023-08-07T01:34:14;99440.53;;;24.70;47.26
81897;BME280;71360;43.506;1.500;2023-08-07T01:36:43;99435.91;;;24.70;47.30
81897;BME280;71360;43.506;1.500;2023-08-07T01:39:09;99435.06;;;24.70;47.48
81897;BME280;71360;43.506;1.500;2023-08-07T01:41:35;99434.19;;;24.69;47.29
81897;BME280;71360;43.506;1.500;2023-08-07T01:44:01;99442.41;;;24.69;47.71
81897;BME280;71360;43.506;1.500;2023-08-07T01:46:27;99446.84;;;24.70;47.81
81897;BME280;71360;43.506;1.500;2023-08-07T01:48:52;99440.66;;;24.68;47.64
81897;BME280;71360;43.506;1.500;2023-08-07T01:51:17;99433.34;;;24.69;47.31
81897;BME280;71360;43.506;1.500;2023-08-07T01:53:43;99440.66;;;24.68;47.09
81897;BME280;71360;43.506;1.500;2023-08-07T01:56:08;99435.22;;;24.68;47.00
81897;BME280;71360;43.506;1.500;2023-08-07T01:58:34;99444.28;;;24.69;47.49
81897;BME280;71360;43.506;1.500;2023-08-07T02:00:59;99439.66;;;24.69;46.96
81897;BME280;71360;43.506;1.500;2023-08-07T02:03:24;99440.66;;;24.68;47.72
81897;BME280;71360;43.506;1.500;2023-08-07T02:05:50;99437.94;;;24.68;47.55
81897;BME280;71360;43.506;1.500;2023-08-07T02:08:15;99445.28;;;24.68;47.22
81897;BME280;71360;43.506;1.500;2023-08-07T02:10:41;99436.25;;;24.67;47.18
81897;BME280;71360;43.506;1.500;2023-08-07T02:13:06;99443.56;;;24.67;47.70
81897;BME280;71360;43.506;1.500;2023-08-07T02:15:32;99447.19;;;24.67;47.31
81897;BME280;71360;43.506;1.500;2023-08-07T02:17:57;99441.72;;;24.67;47.04
81897;BME280;71360;43.506;1.500;2023-08-07T02:20:22;99444.44;;;24.67;47.42
81897;BME280;71360;43.506;1.500;2023-08-07T02:22:48;99446.31;;;24.67;47.04
81897;BME280;71360;43.506;1.500;2023-08-07T02:25:13;99440.84;;;24.67;47.65
81897;BME280;71360;43.506;1.500;2023-08-07T02:27:39;99450.09;;;24.66;47.53
81897;BME280;71360;43.506;1.500;2023-08-07T02:30:05;99446.31;;;24.67;46.84
81897;BME280;71360;43.506;1.500;2023-08-07T02:32:31;99448.19;;;24.66;47.49
81897;BME280;71360;43.506;1.500;2023-08-07T02:34:57;99443.56;;;24.67;47.48
81897;BME280;71360;43.506;1.500;2023-08-07T02:37:22;99449.22;;;24.65;47.02
81897;BME280;71360;43.506;1.500;2023-08-07T02:39:48;99441.88;;;24.66;47.76
81897;BME280;71360;43.506;1.500;2023-08-07T02:42:13;99436.56;;;24.64;46.98
81897;BME280;71360;43.506;1.500;2023-08-07T02:44:39;99441.00;;;24.65;47.58
81897;BME280;71360;43.506;1.500;2023-08-07T02:47:04;99438.28;;;24.65;47.42
81897;BME280;71360;43.506;1.500;2023-08-07T02:49:30;99449.22;;;24.65;47.45
81897;BME280;71360;43.506;1.500;2023-08-07T02:51:55;99440.16;;;24.65;46.85
81897;BME280;71360;43.506;1.500;2023-08-07T02:54:20;99440.16;;;24.65;47.78
81897;BME280;71360;43.506;1.500;2023-08-07T02:56:46;99440.34;;;24.63;47.46
81897;BME280;71360;43.506;1.500;2023-08-07T02:59:13;99457.41;;;24.65;47.63
81897;BME280;71360;43.506;1.500;2023-08-07T03:01:39;99451.09;;;24.65;47.77
81897;BME280;71360;43.506;1.500;2023-08-07T03:04:04;99450.22;;;24.64;47.72
81897;BME280;71360;43.506;1.500;2023-08-07T03:06:30;99446.66;;;24.64;47.35
81897;BME280;71360;43.506;1.500;2023-08-07T03:08:55;99457.56;;;24.64;47.44
81897;BME280;71360;43.506;1.500;2023-08-07T03:11:20;99444.91;;;24.63;47.67
81897;BME280;71360;43.506;1.500;2023-08-07T03:13:46;99451.25;;;24.63;47.33
81897;BME280;71360;43.506;1.500;2023-08-07T03:16:11;99455.00;;;24.62;47.04
81897;BME280;71360;43.506;1.500;2023-08-07T03:18:37;99455.00;;;24.62;46.97
81897;BME280;71360;43.506;1.500;2023-08-07T03:21:02;99446.81;;;24.62;47.11
81897;BME280;71360;43.506;1.500;2023-08-07T03:23:28;99455.84;;;24.63;47.03
81897;BME280;71360;43.506;1.500;2023-08-07T03:26:11;99453.81;;;24.65;47.59
81897;BME280;71360;43.506;1.500;2023-08-07T03:28:37;99458.72;;;24.61;47.39
81897;BME280;71360;43.506;1.500;2023-08-07T03:31:03;99460.47;;;24.62;47.08
81897;BME280;71360;43.506;1.500;2023-08-07T03:33:29;99451.44;;;24.62;47.71
81897;BME280;71360;43.506;1.500;2023-08-07T03:35:55;99457.88;;;24.60;47.20
81897;BME280;71360;43.506;1.500;2023-08-07T03:38:20;99455.00;;;24.62;47.56
81897;BME280;71360;43.506;1.500;2023-08-07T03:40:46;99454.16;;;24.62;47.17
81897;BME280;71360;43.506;1.500;2023-08-07T03:43:11;99450.53;;;24.61;47.82
81897;BME280;71360;43.506;1.500;2023-08-07T03:45:37;99451.44;;;24.62;47.52
81897;BME280;71360;43.506;1.500;2023-08-07T03:48:03;99453.25;;;24.61;47.46
81897;BME280;71360;43.506;1.500;2023-08-07T03:50:28;99458.72;;;24.61;47.63
81897;BME280;71360;43.506;1.500;2023-08-07T03:52:56;99450.69;;;24.59;47.33
81897;BME280;71360;43.506;1.500;2023-08-07T03:55:21;99445.22;;;24.59;47.83
81897;BME280;71360;43.506;1.500;2023-08-07T03:57:46;99447.78;;;24.61;47.89
81897;BME280;71360;43.506;1.500;2023-08-07T04:00:12;99448.97;;;24.58;47.55
81897;BME280;71360;43.506;1.500;2023-08-07T04:02:38;99441.66;;;24.59;47.59
81897;BME280;71360;43.506;1.500;2023-08-07T04:05:04;99440.59;;;24.60;47.17
81897;BME280;71360;43.506;1.500;2023-08-07T04:07:29;99443.34;;;24.60;47.17
81897;BME280;71360;43.506;1.500;2023-08-07T04:09:55;99440.59;;;24.60;47.40
81897;BME280;71360;43.506;1.500;2023-08-07T04:12:20;99438.91;;;24.59;47.09
81897;BME280;71360;43.506;1.500;2023-08-07T04:14:46;99438.91;;;24.59;47.43
81897;BME280;71360;43.506;1.500;2023-08-07T04:17:11;99433.44;;;24.59;47.47
81897;BME280;71360;43.506;1.500;2023-08-07T04:19:37;99432.56;;;24.58;47.47
81897;BME280;71360;43.506;1.500;2023-08-07T04:22:02;99434.47;;;24.58;47.11
81897;BME280;71360;43.506;1.500;2023-08-07T04:24:28;99430.72;;;24.59;47.43
81897;BME280;71360;43.506;1.500;2023-08-07T04:26:53;99438.91;;;24.59;47.50
81897;BME280;71360;43.506;1.500;2023-08-07T04:29:18;99431.72;;;24.58;47.29
81897;BME280;71360;43.506;1.500;2023-08-07T04:31:44;99437.19;;;24.58;47.79
81897;BME280;71360;43.506;1.500;2023-08-07T04:34:09;99438.91;;;24.59;47.92
81897;BME280;71360;43.506;1.500;2023-08-07T04:36:35;99435.47;;;24.57;47.47
81897;BME280;71360;43.506;1.500;2023-08-07T04:39:00;99447.28;;;24.57;47.84
81897;BME280;71360;43.506;1.500;2023-08-07T04:41:26;99448.13;;;24.58;47.72
81897;BME280;71360;43.506;1.500;2023-08-07T04:43:51;99447.28;;;24.57;48.06
81897;BME280;71360;43.506;1.500;2023-08-07T04:46:17;99451.03;;;24.56;47.42
81897;BME280;71360;43.506;1.500;2023-08-07T04:48:42;99449.13;;;24.57;47.35
81897;BME280;71360;43.506;1.500;2023-08-07T04:51:08;99453.75;;;24.56;47.25
81897;BME280;71360;43.506;1.500;2023-08-07T04:53:33;99448.28;;;24.56;47.76
81897;BME280;71360;43.506;1.500;2023-08-07T04:55:59;99453.75;;;24.56;47.53
81897;BME280;71360;43.506;1.500;2023-08-07T04:58:25;99452.88;;;24.56;47.43
81897;BME280;71360;43.506;1.500;2023-08-07T05:00:57;99453.59;;;24.58;47.54
81897;BME280;71360;43.506;1.500;2023-08-07T05:03:24;99453.94;;;24.55;47.19
81897;BME280;71360;43.506;1.500;2023-08-07T05:05:49;99448.47;;;24.55;47.76
81897;BME280;71360;43.506;1.500;2023-08-07T05:08:15;99448.47;;;24.55;46.94
81897;BME280;71360;43.506;1.500;2023-08-07T05:10:41;99455.78;;;24.54;47.83
81897;BME280;71360;43.506;1.500;2023-08-07T05:13:06;99459.38;;;24.55;47.92
81897;BME280;71360;43.506;1.500;2023-08-07T05:15:32;99453.03;;;24.54;47.24
81897;BME280;71360;43.506;1.500;2023-08-07T05:17:57;99445.88;;;24.53;48.04
81897;BME280;71360;43.506;1.500;2023-08-07T05:20:23;99454.94;;;24.54;47.61
81897;BME280;71360;43.506;1.500;2023-08-07T05:22:48;99439.56;;;24.53;47.80
81897;BME280;71360;43.506;1.500;2023-08-07T05:25:14;99446.75;;;24.54;47.97
81897;BME280;71360;43.506;1.500;2023-08-07T05:27:44;99445.03;;;24.53;47.88
81897;BME280;71360;43.506;1.500;2023-08-07T05:30:10;99450.47;;;24.53;47.50
81897;BME280;71360;43.506;1.500;2023-08-07T05:32:36;99452.38;;;24.52;47.04
81897;BME280;71360;43.506;1.500;2023-08-07T05:35:05;99448.75;;;24.52;47.33
81897;BME280;71360;43.506;1.500;2023-08-07T05:37:32;99454.22;;;24.52;47.70
81897;BME280;71360;43.506;1.500;2023-08-07T05:39:58;99447.06;;;24.51;47.74
81897;BME280;71360;43.506;1.500;2023-08-07T05:42:23;99447.91;;;24.51;47.60
81897;BME280;71360;43.506;1.500;2023-08-07T05:44:49;99453.38;;;24.51;47.78
81897;BME280;71360;43.506;1.500;2023-08-07T05:47:14;99452.53;;;24.51;47.15
81897;BME280;71360;43.506;1.500;2023-08-07T05:49:40;99450.81;;;24.50;47.67
81897;BME280;71360;43.506;1.500;2023-08-07T05:52:05;99456.28;;;24.50;47.53
81897;BME280;71360;43.506;1.500;2023-08-07T05:54:31;99457.13;;;24.50;47.69
81897;BME280;71360;43.506;1.500;2023-08-07T05:56:57;99450.81;;;24.50;47.59
81897;BME280;71360;43.506;1.500;2023-08-07T05:59:22;99451.81;;;24.49;48.03
81897;BME280;71360;43.506;1.500;2023-08-07T06:01:48;99450.81;;;24.50;47.34
81897;BME280;71360;43.506;1.500;2023-08-07T06:04:13;99461.75;;;24.50;47.57
81897;BME280;71360;43.506;1.500;2023-08-07T06:06:39;99464.47;;;24.50;47.20
81897;BME280;71360;43.506;1.500;2023-08-07T06:09:05;99469.06;;;24.49;47.24
81897;BME280;71360;43.506;1.500;2023-08-07T06:11:32;99460.03;;;24.49;47.62
81897;BME280;71360;43.506;1.500;2023-08-07T06:13:58;99464.63;;;24.48;48.07
81897;BME280;71360;43.506;1.500;2023-08-07T06:16:23;99461.91;;;24.48;47.81
81897;BME280;71360;43.506;1.500;2023-08-07T06:18:49;99463.75;;;24.48;47.47
81897;BME280;71360;43.506;1.500;2023-08-07T06:21:14;99465.50;;;24.49;47.65
81897;BME280;71360;43.506;1.500;2023-08-07T06:23:40;99470.94;;;24.49;47.64
81897;BME280;71360;43.506;1.500;2023-08-07T06:26:05;99465.66;;;24.47;48.33
81897;BME280;71360;43.506;1.500;2023-08-07T06:28:33;99463.75;;;24.48;47.98
81897;BME280;71360;43.506;1.500;2023-08-07T06:31:07;99462.75;;;24.49;47.47
81897;BME280;71360;43.506;1.500;2023-08-07T06:33:33;99464.81;;;24.47;48.09
81897;BME280;71360;43.506;1.500;2023-08-07T06:35:59;99469.22;;;24.48;48.38
81897;BME280;71360;43.506;1.500;2023-08-07T06:38:24;99466.50;;;24.48;48.38
81897;BME280;71360;43.506;1.500;2023-08-07T06:40:50;99469.22;;;24.48;47.75
81897;BME280;71360;43.506;1.500;2023-08-07T06:43:15;99474.69;;;24.48;48.13
81897;BME280;71360;43.506;1.500;2023-08-07T06:45:41;99470.09;;;24.48;48.33
81897;BME280;71360;43.506;1.500;2023-08-07T06:48:06;99465.66;;;24.47;47.74
81897;BME280;71360;43.506;1.500;2023-08-07T06:50:32;99469.22;;;24.48;48.16
81897;BME280;71360;43.506;1.500;2023-08-07T06:52:57;99469.22;;;24.48;48.24
81897;BME280;71360;43.506;1.500;2023-08-07T06:55:23;99467.38;;;24.48;48.04
81897;BME280;71360;43.506;1.500;2023-08-07T06:57:48;99463.94;;;24.46;48.33
81897;BME280;71360;43.506;1.500;2023-08-07T07:00:15;99469.41;;;24.46;48.41
81897;BME280;71360;43.506;1.500;2023-08-07T07:02:40;99474.69;;;24.48;47.90
81897;BME280;71360;43.506;1.500;2023-08-07T07:05:06;99474.69;;;24.48;47.87
81897;BME280;71360;43.506;1.500;2023-08-07T07:07:31;99478.31;;;24.48;47.98
81897;BME280;71360;43.506;1.500;2023-08-07T07:09:57;99473.84;;;24.47;48.63
81897;BME280;71360;43.506;1.500;2023-08-07T07:12:28;99474.69;;;24.48;48.11
81897;BME280;71360;43.506;1.500;2023-08-07T07:14:54;99472.84;;;24.48;47.49
81897;BME280;71360;43.506;1.500;2023-08-07T07:17:20;99475.56;;;24.48;47.45
81897;BME280;71360;43.506;1.500;2023-08-07T07:19:46;99482.88;;;24.48;47.31
81897;BME280;71360;43.506;1.500;2023-08-07T07:22:11;99477.44;;;24.48;47.75
81897;BME280;71360;43.506;1.500;2023-08-07T07:24:37;99479.31;;;24.47;47.58
81897;BME280;71360;43.506;1.500;2023-08-07T07:27:03;99480.31;;;24.46;47.96
81897;BME280;71360;43.506;1.500;2023-08-07T07:29:29;99475.88;;;24.45;47.91
81897;BME280;71360;43.506;1.500;2023-08-07T07:31:54;99476.75;;;24.46;47.55
81897;BME280;71360;43.506;1.500;2023-08-07T07:34:20;99482.22;;;24.46;48.08
81897;BME280;71360;43.506;1.500;2023-08-07T07:36:46;99473.31;;;24.43;48.06
81897;BME280;71360;43.506;1.500;2023-08-07T07:39:11;99473.31;;;24.43;48.32
81897;BME280;71360;43.506;1.500;2023-08-07T07:41:37;99470.41;;;24.45;47.51
81897;BME280;71360;43.506;1.500;2023-08-07T07:44:02;99469.56;;;24.44;48.23
81897;BME280;71360;43.506;1.500;2023-08-07T07:46:28;99470.56;;;24.43;48.66
81897;BME280;71360;43.506;1.500;2023-08-07T07:48:53;99473.31;;;24.43;47.96
81897;BME280;71360;43.506;1.500;2023-08-07T07:51:21;99472.28;;;24.44;47.73
81897;BME280;71360;43.506;1.500;2023-08-07T07:53:46;99466.66;;;24.46;47.94
81897;BME280;71360;43.506;1.500;2023-08-07T07:56:12;99465.97;;;24.44;48.67
81897;BME280;71360;43.506;1.500;2023-08-07T07:58:37;99472.13;;;24.46;48.49
81897;BME280;71360;43.506;1.500;2023-08-07T08:01:02;99463.94;;;24.46;48.82
81897;BME280;71360;43.506;1.500;2023-08-07T08:03:28;99462.06;;;24.47;49.23
81897;BME280;71360;43.506;1.500;2023-08-07T08:05:53;99468.38;;;24.47;49.18
81897;BME280;71360;43.506;1.500;2023-08-07T08:08:19;99457.63;;;24.46;49.33
81897;BME280;71360;43.506;1.500;2023-08-07T08:10:45;99462.91;;;24.47;49.01
81897;BME280;71360;43.506;1.500;2023-08-07T08:13:13;99464.63;;;24.48;49.05
81897;BME280;71360;43.506;1.500;2023-08-07T08:15:39;99461.91;;;24.48;48.98
81897;BME280;71360;43.506;1.500;2023-08-07T08:18:04;99463.75;;;24.48;49.06
81897;BME280;71360;43.506;1.500;2023-08-07T08:20:30;99467.22;;;24.50;49.02
81897;BME280;71360;43.506;1.500;2023-08-07T08:22:56;99475.41;;;24.50;49.20
81897;BME280;71360;43.506;1.500;2023-08-07T08:25:22;99478.13;;;24.50;49.32
81897;BME280;71360;43.506;1.500;2023-08-07T08:27:48;99469.94;;;24.50;50.10
81897;BME280;71360;43.506;1.500;2023-08-07T08:30:15;99473.50;;;24.50;49.34
81897;BME280;71360;43.506;1.500;2023-08-07T08:32:40;99476.25;;;24.50;50.14
81897;BME280;71360;43.506;1.500;2023-08-07T08:35:06;99468.94;;;24.51;49.86
81897;BME280;71360;43.506;1.500;2023-08-07T08:37:33;99470.63;;;24.52;49.83
81897;BME280;71360;43.506;1.500;2023-08-07T08:39:58;99476.97;;;24.52;49.76
81897;BME280;71360;43.506;1.500;2023-08-07T08:42:24;99465.16;;;24.52;49.83
81897;BME280;71360;43.506;1.500;2023-08-07T08:44:55;99468.59;;;24.54;49.46
81897;BME280;71360;43.506;1.500;2023-08-07T08:47:22;99466.88;;;24.53;49.89
81897;BME280;71360;43.506;1.500;2023-08-07T08:49:50;99471.50;;;24.52;50.29
81897;BME280;71360;43.506;1.500;2023-08-07T08:52:16;99470.44;;;24.53;49.92
81897;BME280;71360;43.506;1.500;2023-08-07T08:54:46;99473.19;;;24.53;49.28
81897;BME280;71360;43.506;1.500;2023-08-07T08:57:12;99476.78;;;24.54;49.74
81897;BME280;71360;43.506;1.500;2023-08-07T08:59:40;99477.81;;;24.53;49.92
81897;BME280;71360;43.506;1.500;2023-08-07T09:02:08;99473.19;;;24.53;49.71
81897;BME280;71360;43.506;1.500;2023-08-07T09:04:33;99475.91;;;24.53;50.15
81897;BME280;71360;43.506;1.500;2023-08-07T09:07:00;99474.06;;;24.54;49.83
81897;BME280;71360;43.506;1.500;2023-08-07T09:09:27;99476.78;;;24.54;50.01
81897;BME280;71360;43.506;1.500;2023-08-07T09:11:52;99477.63;;;24.54;49.70
81897;BME280;71360;43.506;1.500;2023-08-07T09:14:22;99485.00;;;24.54;49.67
81897;BME280;71360;43.506;1.500;2023-08-07T09:16:49;99475.78;;;24.55;49.77
81897;BME280;71360;43.506;1.500;2023-08-07T09:19:15;99477.47;;;24.56;49.64
81897;BME280;71360;43.506;1.500;2023-08-07T09:21:40;99480.19;;;24.56;50.14
81897;BME280;71360;43.506;1.500;2023-08-07T09:24:06;99479.19;;;24.57;50.17
81897;BME280;71360;43.506;1.500;2023-08-07T09:26:32;99476.47;;;24.57;50.59
81897;BME280;71360;43.506;1.500;2023-08-07T09:29:02;99473.72;;;24.57;50.32
81897;BME280;71360;43.506;1.500;2023-08-07T09:31:28;99464.53;;;24.58;50.66
81897;BME280;71360;43.506;1.500;2023-08-07T09:34:01;99468.97;;;24.59;50.62
81897;BME280;71360;43.506;1.500;2023-08-07T09:36:26;99475.44;;;24.58;50.67
81897;BME280;71360;43.506;1.500;2023-08-07T09:38:52;99461.78;;;24.58;50.03
81897;BME280;71360;43.506;1.500;2023-08-07T09:41:18;99464.53;;;24.58;50.62
81897;BME280;71360;43.506;1.500;2023-08-07T09:43:45;99466.25;;;24.59;50.46
81897;BME280;71360;43.506;1.500;2023-08-07T09:46:11;99455.31;;;24.59;50.11
81897;BME280;71360;43.506;1.500;2023-08-07T09:48:41;99455.31;;;24.59;50.51
81897;BME280;71360;43.506;1.500;2023-08-07T09:51:07;99451.69;;;24.58;50.12
81897;BME280;71360;43.506;1.500;2023-08-07T09:53:33;99453.59;;;24.58;50.61
81897;BME280;71360;43.506;1.500;2023-08-07T09:55:59;99449.84;;;24.59;50.63
81897;BME280;71360;43.506;1.500;2023-08-07T09:58:24;99451.69;;;24.58;50.37
81897;BME280;71360;43.506;1.500;2023-08-07T10:00:51;99450.84;;;24.58;49.72
81897;BME280;71360;43.506;1.500;2023-08-07T10:03:20;99452.75;;;24.57;49.45
81897;BME280;71360;43.506;1.500;2023-08-07T10:05:46;99446.41;;;24.57;49.40
81897;BME280;71360;43.506;1.500;2023-08-07T10:08:12;99441.81;;;24.57;49.28
81897;BME280;71360;43.506;1.500;2023-08-07T10:10:38;99438.22;;;24.57;49.89
81897;BME280;71360;43.506;1.500;2023-08-07T10:13:04;99441.94;;;24.56;49.97
81897;BME280;71360;43.506;1.500;2023-08-07T10:15:32;99437.38;;;24.56;49.09
81897;BME280;71360;43.506;1.500;2023-08-07T10:17:58;99441.94;;;24.56;49.25
81897;BME280;71360;43.506;1.500;2023-08-07T10:20:28;99448.28;;;24.56;49.45
81897;BME280;71360;43.506;1.500;2023-08-07T10:22:57;99444.69;;;24.56;49.19
81897;BME280;71360;43.506;1.500;2023-08-07T10:25:26;99434.78;;;24.55;49.52
81897;BME280;71360;43.506;1.500;2023-08-07T10:27:53;99440.25;;;24.55;49.30
81897;BME280;71360;43.506;1.500;2023-08-07T10:30:21;99437.53;;;24.55;49.73
81897;BME280;71360;43.506;1.500;2023-08-07T10:32:49;99435.63;;;24.55;49.51
81897;BME280;71360;43.506;1.500;2023-08-07T10:35:45;99430.00;;;24.57;49.54
81897;BME280;71360;43.506;1.500;2023-08-07T10:38:12;99435.81;;;24.54;49.51
81897;BME280;71360;43.506;1.500;2023-08-07T10:41:06;99436.34;;;24.57;49.19
81897;BME280;71360;43.506;1.500;2023-08-07T10:43:37;99422.16;;;24.54;49.83
81897;BME280;71360;43.506;1.500;2023-08-07T10:46:11;99416.53;;;24.55;50.32
81897;BME280;71360;43.506;1.500;2023-08-07T10:48:47;99414.63;;;24.56;49.70
81897;BME280;71360;43.506;1.500;2023-08-07T10:51:19;99411.91;;;24.56;50.39
81897;BME280;71360;43.506;1.500;2023-08-07T10:53:48;99409.16;;;24.56;49.57
81897;BME280;71360;43.506;1.500;2023-08-07T10:56:38;99411.91;;;24.56;50.45
81897;BME280;71360;43.506;1.500;2023-08-07T10:59:10;99407.31;;;24.56;49.50
81897;BME280;71360;43.506;1.500;2023-08-07T11:01:41;99417.38;;;24.56;50.03
81897;BME280;71360;43.506;1.500;2023-08-07T11:04:11;99418.25;;;24.56;49.81
81897;BME280;71360;43.506;1.500;2023-08-07T11:06:39;99411.91;;;24.56;49.73
81897;BME280;71360;43.506;1.500;2023-08-07T11:09:06;99403.56;;;24.57;49.79
81897;BME280;71360;43.506;1.500;2023-08-07T11:11:40;99398.94;;;24.58;49.82
81897;BME280;71360;43.506;1.500;2023-08-07T11:14:07;99391.75;;;24.57;50.09
81897;BME280;71360;43.506;1.500;2023-08-07T11:16:34;99398.94;;;24.58;50.33
81897;BME280;71360;43.506;1.500;2023-08-07T11:18:59;99390.75;;;24.58;49.89
81897;BME280;71360;43.506;1.500;2023-08-07T11:21:25;99395.19;;;24.59;49.75
81897;BME280;71360;43.506;1.500;2023-08-07T11:23:51;99389.75;;;24.59;50.17
81897;BME280;71360;43.506;1.500;2023-08-07T11:26:16;99390.75;;;24.58;50.48
81897;BME280;71360;43.506;1.500;2023-08-07T11:28:42;99383.41;;;24.58;50.03
81897;BME280;71360;43.506;1.500;2023-08-07T11:31:08;99385.13;;;24.59;49.72
81897;BME280;71360;43.506;1.500;2023-08-07T11:33:36;99375.03;;;24.60;49.93
81897;BME280;71360;43.506;1.500;2023-08-07T11:36:01;99376.75;;;24.61;49.39
81897;BME280;71360;43.506;1.500;2023-08-07T11:38:43;99375.78;;;24.62;49.62
81897;BME280;71360;43.506;1.500;2023-08-07T11:41:10;99368.72;;;24.59;49.56
81897;BME280;71360;43.506;1.500;2023-08-07T11:43:36;99372.28;;;24.60;50.07
81897;BME280;71360;43.506;1.500;2023-08-07T11:46:06;99362.09;;;24.62;49.87
81897;BME280;71360;43.506;1.500;2023-08-07T11:48:37;99366.72;;;24.62;49.69
81897;BME280;71360;43.506;1.500;2023-08-07T11:51:03;99362.09;;;24.62;49.96
81897;BME280;71360;43.506;1.500;2023-08-07T11:53:32;99353.91;;;24.62;49.46
81897;BME280;71360;43.506;1.500;2023-08-07T11:56:00;99347.44;;;24.63;50.36
81897;BME280;71360;43.506;1.500;2023-08-07T11:58:31;99341.97;;;24.63;49.65
81897;BME280;71360;43.506;1.500;2023-08-07T12:00:58;99337.34;;;24.64;49.78
81897;BME280;71360;43.506;1.500;2023-08-07T12:03:38;99351.72;;;24.66;49.64
81897;BME280;71360;43.506;1.500;2023-08-07T12:06:06;99349.28;;;24.63;49.90
81897;BME280;71360;43.506;1.500;2023-08-07T12:08:39;99343.66;;;24.64;49.48
81897;BME280;71360;43.506;1.500;2023-08-07T12:11:08;99340.06;;;24.64;49.77
81897;BME280;71360;43.506;1.500;2023-08-07T12:13:38;99333.78;;;24.63;49.60
81897;BME280;71360;43.506;1.500;2023-08-07T12:16:03;99332.72;;;24.64;49.72
81897;BME280;71360;43.506;1.500;2023-08-07T12:18:30;99334.44;;;24.65;50.23
81897;BME280;71360;43.506;1.500;2023-08-07T12:21:01;99325.22;;;24.66;50.00
81897;BME280;71360;43.506;1.500;2023-08-07T12:23:27;99330.69;;;24.66;49.73
81897;BME280;71360;43.506;1.500;2023-08-07T12:25:53;99318.91;;;24.66;49.50
81897;BME280;71360;43.506;1.500;2023-08-07T12:28:19;99325.22;;;24.66;49.82
81897;BME280;71360;43.506;1.500;2023-08-07T12:30:46;99316.03;;;24.67;50.11
81897;BME280;71360;43.506;1.500;2023-08-07T12:33:12;99317.03;;;24.66;49.39
81897;BME280;71360;43.506;1.500;2023-08-07T12:35:37;99318.75;;;24.67;49.80
81897;BME280;71360;43.506;1.500;2023-08-07T12:38:03;99316.03;;;24.67;50.22
81897;BME280;71360;43.506;1.500;2023-08-07T12:40:30;99310.56;;;24.67;49.50
81897;BME280;71360;43.506;1.500;2023-08-07T12:42:57;99314.97;;;24.68;49.65
81897;BME280;71360;43.506;1.500;2023-08-07T12:45:23;99310.56;;;24.67;49.71
81897;BME280;71360;43.506;1.500;2023-08-07T12:47:49;99311.41;;;24.68;50.14
81897;BME280;71360;43.506;1.500;2023-08-07T12:50:14;99310.56;;;24.67;50.25
81897;BME280;71360;43.506;1.500;2023-08-07T12:52:40;99310.56;;;24.67;49.45
81897;BME280;71360;43.506;1.500;2023-08-07T12:55:06;99304.91;;;24.69;49.95
81897;BME280;71360;43.506;1.500;2023-08-07T12:57:32;99297.56;;;24.69;49.91
81897;BME280;71360;43.506;1.500;2023-08-07T12:59:57;99297.56;;;24.69;50.29